Pownal, ME (04069)

7:56 AM EST on December 10, 2016 (GMT -0500)
Chicken Run | | Change Station

Elev 243 ft 43.93 °N, 70.16 °W | Updated 5 seconds ago

Clear
Clear
15.0 °F
Feels Like 15 °F
N
0.0
Wind Variable Wind from North
Gusts 0.0 mph

Today
High -- | Low -- °F
--% Chance of Precip.
Yesterday
High -- | Low -- °F
Precip. -- in
Pressure 30.24 in
Visibility 10.0 miles
Clouds Clear
Windchill 15 °F
Dew Point 4 °F
Humidity 62%
Rainfall 0.00 in
Snow Depth Not available.
7:04 AM 4:02 PM
Waxing Gibbous, 83% visible
METAR KLEW 101156Z AUTO 32006KT 10SM CLR M09/M15 A3019 RMK AO2 SLP240 T10941150 11078 21106 53010 FZRANO
Pressure 30.24 in
Visibility 10.0 miles
Clouds Clear
Windchill 15 °F
Dew Point 4 °F
Humidity 62%
Rainfall 0.00 in
Snow Depth Not available.
7:04 AM 4:02 PM
Waxing Gibbous, 83% visible
METAR KLEW 101156Z AUTO 32006KT 10SM CLR M09/M15 A3019 RMK AO2 SLP240 T10941150 11078 21106 53010 FZRANO

10-Day Weather Forecast

Almanac

Astronomy

Dec. 10, 2016 Rise Set
Actual Time
Civil Twilight
Nautical Twilight
Astronomical Twilight
Moon
Length of Visible Light
Length of Day
Tomorrow will be .
, % of the Moon is Illuminated

Today's Extremes

State Highs State Lows

Community

WunderPhotos

Upload Photos

1,956,540 photos uploaded!

WunderBlog® & News

Nearby

Air Quality

  Air Quality AQ Index Pollutant
Not available.

Snow Depth

Station Depth Elevation

Earthquake Activity

City Distance Mag. Time & Date
Minimum magnitude displayed is 2.5.

Coastal Water Temperatures

Place Temperature

Stations

Nearby Weather Stations

Station Location Temp. Windchill Dew Point Humidity Wind Precip. Elev Updated Type
                   

Watches & Warnings

There are currently no watches in effect.